sensor_id;sensor_type;location;lat;lon;timestamp;pressure;altitude;pressure_sealevel;temperature;humidity
22333;BME280;11334;36.986;-121.936;2023-01-25T00:02:25;102202.91;;;16.54;42.91
22333;BME280;11334;36.986;-121.936;2023-01-25T00:04:52;102213.63;;;16.54;43.35
22333;BME280;11334;36.986;-121.936;2023-01-25T00:07:18;102200.25;;;16.54;43.40
22333;BME280;11334;36.986;-121.936;2023-01-25T00:09:44;102206.75;;;16.51;44.18
22333;BME280;11334;36.986;-121.936;2023-01-25T00:12:10;102200.72;;;16.49;44.31
22333;BME280;11334;36.986;-121.936;2023-01-25T00:14:37;102201.03;;;16.46;44.36
22333;BME280;11334;36.986;-121.936;2023-01-25T00:17:03;102205.22;;;16.49;44.42
22333;BME280;11334;36.986;-121.936;2023-01-25T00:19:29;102201.72;;;16.48;44.99
22333;BME280;11334;36.986;-121.936;2023-01-25T00:21:55;102209.75;;;16.48;44.52
22333;BME280;11334;36.986;-121.936;2023-01-25T00:24:22;102207.22;;;16.47;43.97
22333;BME280;11334;36.986;-121.936;2023-01-25T00:26:50;102208.06;;;16.47;44.17
22333;BME280;11334;36.986;-121.936;2023-01-25T00:29:16;102211.06;;;16.44;44.60
22333;BME280;11334;36.986;-121.936;2023-01-25T00:39:20;102199.47;;;16.36;45.54
22333;BME280;11334;36.986;-121.936;2023-01-25T00:41:46;102198.78;;;16.34;45.67
22333;BME280;11334;36.986;-121.936;2023-01-25T00:44:12;102200.78;;;16.32;45.61
22333;BME280;11334;36.986;-121.936;2023-01-25T00:46:39;102199.94;;;16.32;45.79
22333;BME280;11334;36.986;-121.936;2023-01-25T00:49:05;102204.78;;;16.28;46.26
22333;BME280;11334;36.986;-121.936;2023-01-25T00:51:32;102184.63;;;16.16;46.67
22333;BME280;11334;36.986;-121.936;2023-01-25T00:53:58;102203.25;;;16.26;46.69
22333;BME280;11334;36.986;-121.936;2023-01-25T00:56:24;102192.84;;;16.23;46.79
22333;BME280;11334;36.986;-121.936;2023-01-25T00:58:51;102199.34;;;16.20;47.12
22333;BME280;11334;36.986;-121.936;2023-01-25T01:01:17;102200.50;;;16.18;47.63
22333;BME280;11334;36.986;-121.936;2023-01-25T01:03:43;102185.84;;;16.05;47.74
22333;BME280;11334;36.986;-121.936;2023-01-25T01:06:11;102192.56;;;16.09;48.09
22333;BME280;11334;36.986;-121.936;2023-01-25T01:08:41;102203.56;;;16.06;48.22
22333;BME280;11334;36.986;-121.936;2023-01-25T01:11:09;102201.53;;;16.00;48.82
22333;BME280;11334;36.986;-121.936;2023-01-25T01:13:37;102199.31;;;15.95;49.49
22333;BME280;11334;36.986;-121.936;2023-01-25T01:16:05;102201.59;;;15.90;49.98
22333;BME280;11334;36.986;-121.936;2023-01-25T01:18:39;102193.22;;;15.85;50.38
22333;BME280;11334;36.986;-121.936;2023-01-25T01:21:05;102200.03;;;15.80;50.86
22333;BME280;11334;36.986;-121.936;2023-01-25T01:23:33;102197.28;;;15.72;51.38
22333;BME280;11334;36.986;-121.936;2023-01-25T01:26:04;102198.88;;;15.65;51.70
22333;BME280;11334;36.986;-121.936;2023-01-25T01:28:35;102191.50;;;15.59;52.29
22333;BME280;11334;36.986;-121.936;2023-01-25T01:31:15;102209.81;;;15.54;53.08
22333;BME280;11334;36.986;-121.936;2023-01-25T01:33:42;102202.72;;;15.46;53.51
22333;BME280;11334;36.986;-121.936;2023-01-25T01:36:15;102208.81;;;15.38;54.04
22333;BME280;11334;36.986;-121.936;2023-01-25T01:38:42;102194.31;;;15.23;54.86
22333;BME280;11334;36.986;-121.936;2023-01-25T01:41:10;102202.44;;;15.22;55.16
22333;BME280;11334;36.986;-121.936;2023-01-25T01:43:37;102202.75;;;15.19;56.01
22333;BME280;11334;36.986;-121.936;2023-01-25T01:46:19;102202.25;;;15.06;56.04
22333;BME280;11334;36.986;-121.936;2023-01-25T01:54:33;102219.41;;;14.77;57.65
22333;BME280;11334;36.986;-121.936;2023-01-25T01:59:39;102218.06;;;14.64;58.29
22333;BME280;11334;36.986;-121.936;2023-01-25T02:02:07;102221.75;;;14.53;57.85
22333;BME280;11334;36.986;-121.936;2023-01-25T02:04:33;102228.13;;;14.43;58.62
22333;BME280;11334;36.986;-121.936;2023-01-25T02:07:20;102234.31;;;14.34;59.64
22333;BME280;11334;36.986;-121.936;2023-01-25T02:09:49;102234.19;;;14.26;59.86
22333;BME280;11334;36.986;-121.936;2023-01-25T02:12:16;102231.00;;;14.14;59.88
22333;BME280;11334;36.986;-121.936;2023-01-25T02:14:51;102228.47;;;14.03;60.18
22333;BME280;11334;36.986;-121.936;2023-01-25T02:17:29;102233.81;;;14.03;60.19
22333;BME280;11334;36.986;-121.936;2023-01-25T02:25:10;102237.31;;;13.75;61.23
22333;BME280;11334;36.986;-121.936;2023-01-25T02:27:41;102245.47;;;13.74;61.18
22333;BME280;11334;36.986;-121.936;2023-01-25T02:30:10;102230.00;;;13.58;61.85
22333;BME280;11334;36.986;-121.936;2023-01-25T02:32:37;102234.91;;;13.54;61.86
22333;BME280;11334;36.986;-121.936;2023-01-25T02:35:04;102239.13;;;13.47;61.74
22333;BME280;11334;36.986;-121.936;2023-01-25T02:37:30;102239.94;;;13.38;62.59
22333;BME280;11334;36.986;-121.936;2023-01-25T02:39:57;102231.13;;;13.28;62.25
22333;BME280;11334;36.986;-121.936;2023-01-25T02:42:23;102232.09;;;13.27;62.80
22333;BME280;11334;36.986;-121.936;2023-01-25T02:44:49;102241.22;;;13.25;61.98
22333;BME280;11334;36.986;-121.936;2023-01-25T02:47:16;102228.00;;;13.14;63.08
22333;BME280;11334;36.986;-121.936;2023-01-25T02:49:42;102236.25;;;13.11;62.84
22333;BME280;11334;36.986;-121.936;2023-01-25T02:52:09;102248.56;;;13.02;63.35
22333;BME280;11334;36.986;-121.936;2023-01-25T02:54:35;102255.00;;;13.00;63.12
22333;BME280;11334;36.986;-121.936;2023-01-25T02:57:01;102241.28;;;12.95;63.00
22333;BME280;11334;36.986;-121.936;2023-01-25T02:59:27;102247.38;;;12.86;63.58
22333;BME280;11334;36.986;-121.936;2023-01-25T03:01:54;102233.53;;;12.83;63.73
22333;BME280;11334;36.986;-121.936;2023-01-25T03:04:20;102246.81;;;12.83;63.37
22333;BME280;11334;36.986;-121.936;2023-01-25T03:06:47;102222.38;;;12.68;63.38
22333;BME280;11334;36.986;-121.936;2023-01-25T03:09:13;102248.56;;;12.73;63.87
22333;BME280;11334;36.986;-121.936;2023-01-25T03:11:39;102247.53;;;12.64;63.77
22333;BME280;11334;36.986;-121.936;2023-01-25T03:14:05;102243.03;;;12.56;64.64
22333;BME280;11334;36.986;-121.936;2023-01-25T03:16:32;102250.28;;;12.54;64.25
22333;BME280;11334;36.986;-121.936;2023-01-25T03:18:58;102252.50;;;12.49;64.59
22333;BME280;11334;36.986;-121.936;2023-01-25T03:21:25;102245.75;;;12.45;64.48
22333;BME280;11334;36.986;-121.936;2023-01-25T03:23:58;102249.41;;;12.44;64.91
22333;BME280;11334;36.986;-121.936;2023-01-25T03:26:28;102250.63;;;12.40;64.55
22333;BME280;11334;36.986;-121.936;2023-01-25T03:28:54;102256.94;;;12.39;64.62
22333;BME280;11334;36.986;-121.936;2023-01-25T03:31:20;102256.38;;;12.35;64.87
22333;BME280;11334;36.986;-121.936;2023-01-25T03:33:46;102250.59;;;12.31;65.00
22333;BME280;11334;36.986;-121.936;2023-01-25T03:36:14;102257.59;;;12.31;64.99
22333;BME280;11334;36.986;-121.936;2023-01-25T03:38:40;102253.31;;;12.20;65.13
22333;BME280;11334;36.986;-121.936;2023-01-25T03:41:08;102253.66;;;12.06;66.45
22333;BME280;11334;36.986;-121.936;2023-01-25T03:43:34;102258.09;;;12.05;66.27
22333;BME280;11334;36.986;-121.936;2023-01-25T03:46:01;102264.84;;;12.09;65.73
22333;BME280;11334;36.986;-121.936;2023-01-25T03:48:27;102255.66;;;12.13;65.65
22333;BME280;11334;36.986;-121.936;2023-01-25T03:50:59;102263.47;;;12.15;65.06
22333;BME280;11334;36.986;-121.936;2023-01-25T03:53:27;102273.38;;;12.13;65.35
22333;BME280;11334;36.986;-121.936;2023-01-25T03:56:03;102252.22;;;12.02;64.71
22333;BME280;11334;36.986;-121.936;2023-01-25T03:58:30;102265.50;;;12.02;65.25
22333;BME280;11334;36.986;-121.936;2023-01-25T04:00:59;102271.81;;;11.90;66.46
22333;BME280;11334;36.986;-121.936;2023-01-25T04:03:26;102268.25;;;11.80;66.41
22333;BME280;11334;36.986;-121.936;2023-01-25T04:05:53;102278.50;;;11.85;66.29
22333;BME280;11334;36.986;-121.936;2023-01-25T04:08:21;102270.66;;;11.83;65.80
22333;BME280;11334;36.986;-121.936;2023-01-25T04:10:51;102282.97;;;11.84;65.66
22333;BME280;11334;36.986;-121.936;2023-01-25T04:13:19;102260.16;;;11.62;66.14
22333;BME280;11334;36.986;-121.936;2023-01-25T04:15:46;102277.94;;;11.70;66.36
22333;BME280;11334;36.986;-121.936;2023-01-25T04:18:12;102290.97;;;11.73;66.66
22333;BME280;11334;36.986;-121.936;2023-01-25T04:20:38;102279.56;;;11.62;66.37
22333;BME280;11334;36.986;-121.936;2023-01-25T04:23:05;102301.72;;;11.72;66.46
22333;BME280;11334;36.986;-121.936;2023-01-25T04:25:35;102284.97;;;11.61;66.40
22333;BME280;11334;36.986;-121.936;2023-01-25T04:28:02;102281.75;;;11.57;66.62
22333;BME280;11334;36.986;-121.936;2023-01-25T04:30:28;102309.97;;;11.58;66.17
22333;BME280;11334;36.986;-121.936;2023-01-25T04:32:54;102307.09;;;11.50;66.48
22333;BME280;11334;36.986;-121.936;2023-01-25T04:35:20;102304.22;;;11.42;66.84
22333;BME280;11334;36.986;-121.936;2023-01-25T04:37:57;102307.72;;;11.43;67.55
22333;BME280;11334;36.986;-121.936;2023-01-25T04:40:24;102314.00;;;11.42;66.96
22333;BME280;11334;36.986;-121.936;2023-01-25T04:42:50;102312.53;;;11.38;67.31
22333;BME280;11334;36.986;-121.936;2023-01-25T04:45:17;102309.19;;;11.25;68.15
22333;BME280;11334;36.986;-121.936;2023-01-25T04:47:43;102314.59;;;11.24;68.01
22333;BME280;11334;36.986;-121.936;2023-01-25T04:50:09;102310.38;;;11.21;67.96
22333;BME280;11334;36.986;-121.936;2023-01-25T04:52:36;102312.56;;;11.16;68.38
22333;BME280;11334;36.986;-121.936;2023-01-25T04:55:02;102287.13;;;11.03;67.40
22333;BME280;11334;36.986;-121.936;2023-01-25T04:57:29;102315.19;;;11.16;67.76
22333;BME280;11334;36.986;-121.936;2023-01-25T04:59:55;102315.34;;;11.15;67.91
22333;BME280;11334;36.986;-121.936;2023-01-25T05:02:22;102314.13;;;11.08;68.29
22333;BME280;11334;36.986;-121.936;2023-01-25T05:04:48;102319.44;;;11.08;67.83
22333;BME280;11334;36.986;-121.936;2023-01-25T05:07:14;102324.16;;;11.04;68.29
22333;BME280;11334;36.986;-121.936;2023-01-25T05:09:40;102333.41;;;10.99;68.13
22333;BME280;11334;36.986;-121.936;2023-01-25T05:12:07;102328.25;;;10.98;68.53
22333;BME280;11334;36.986;-121.936;2023-01-25T05:14:39;102302.47;;;10.78;68.99
22333;BME280;11334;36.986;-121.936;2023-01-25T05:17:06;102328.59;;;10.93;68.83
22333;BME280;11334;36.986;-121.936;2023-01-25T05:19:33;102334.03;;;10.81;69.20
22333;BME280;11334;36.986;-121.936;2023-01-25T05:22:01;102325.69;;;10.74;70.02
22333;BME280;11334;36.986;-121.936;2023-01-25T05:24:30;102322.69;;;10.79;69.96
22333;BME280;11334;36.986;-121.936;2023-01-25T05:26:57;102321.00;;;10.78;69.52
22333;BME280;11334;36.986;-121.936;2023-01-25T05:29:30;102325.47;;;10.77;69.45
22333;BME280;11334;36.986;-121.936;2023-01-25T05:31:57;102331.47;;;10.79;69.08
22333;BME280;11334;36.986;-121.936;2023-01-25T05:34:24;102324.84;;;10.74;69.13
22333;BME280;11334;36.986;-121.936;2023-01-25T05:36:50;102318.22;;;10.58;70.28
22333;BME280;11334;36.986;-121.936;2023-01-25T05:39:17;102324.03;;;10.63;69.58
22333;BME280;11334;36.986;-121.936;2023-01-25T05:41:43;102330.25;;;10.62;69.80
22333;BME280;11334;36.986;-121.936;2023-01-25T05:44:09;102323.53;;;10.58;70.03
22333;BME280;11334;36.986;-121.936;2023-01-25T05:46:36;102318.81;;;10.50;69.91
22333;BME280;11334;36.986;-121.936;2023-01-25T05:49:02;102331.94;;;10.52;69.57
22333;BME280;11334;36.986;-121.936;2023-01-25T05:51:28;102323.72;;;10.44;70.02
22333;BME280;11334;36.986;-121.936;2023-01-25T05:53:55;102335.16;;;10.44;70.33
22333;BME280;11334;36.986;-121.936;2023-01-25T05:56:21;102334.69;;;10.40;70.25
22333;BME280;11334;36.986;-121.936;2023-01-25T05:58:54;102316.22;;;10.27;70.66
22333;BME280;11334;36.986;-121.936;2023-01-25T06:01:21;102333.44;;;10.33;70.21
22333;BME280;11334;36.986;-121.936;2023-01-25T06:03:48;102329.97;;;10.32;70.42
22333;BME280;11334;36.986;-121.936;2023-01-25T06:06:14;102338.03;;;10.31;70.27
22333;BME280;11334;36.986;-121.936;2023-01-25T06:08:40;102341.09;;;10.03;71.67
22333;BME280;11334;36.986;-121.936;2023-01-25T06:11:08;102330.25;;;10.06;71.78
22333;BME280;11334;36.986;-121.936;2023-01-25T06:13:35;102324.78;;;9.97;71.65
22333;BME280;11334;36.986;-121.936;2023-01-25T06:16:01;102327.72;;;10.05;71.58
22333;BME280;11334;36.986;-121.936;2023-01-25T06:18:30;102336.16;;;10.09;71.41
22333;BME280;11334;36.986;-121.936;2023-01-25T06:20:57;102337.22;;;10.07;71.32
22333;BME280;11334;36.986;-121.936;2023-01-25T06:23:24;102337.47;;;10.04;71.10
22333;BME280;11334;36.986;-121.936;2023-01-25T06:25:51;102312.78;;;9.80;71.74
22333;BME280;11334;36.986;-121.936;2023-01-25T06:28:20;102343.78;;;9.91;72.00
22333;BME280;11334;36.986;-121.936;2023-01-25T06:30:46;102334.44;;;9.85;71.98
22333;BME280;11334;36.986;-121.936;2023-01-25T06:33:13;102351.59;;;9.92;71.55
22333;BME280;11334;36.986;-121.936;2023-01-25T06:35:39;102354.69;;;9.86;71.42
22333;BME280;11334;36.986;-121.936;2023-01-25T06:38:05;102346.66;;;9.76;71.94
22333;BME280;11334;36.986;-121.936;2023-01-25T06:40:32;102329.69;;;9.67;71.89
22333;BME280;11334;36.986;-121.936;2023-01-25T06:43:09;102349.63;;;9.83;71.72
22333;BME280;11334;36.986;-121.936;2023-01-25T06:45:35;102355.34;;;9.77;72.02
22333;BME280;11334;36.986;-121.936;2023-01-25T06:48:02;102333.84;;;9.59;72.81
22333;BME280;11334;36.986;-121.936;2023-01-25T06:50:28;102362.28;;;9.68;73.02
22333;BME280;11334;36.986;-121.936;2023-01-25T06:52:55;102337.66;;;9.55;72.55
22333;BME280;11334;36.986;-121.936;2023-01-25T06:55:22;102363.66;;;9.61;72.98
22333;BME280;11334;36.986;-121.936;2023-01-25T06:57:48;102364.88;;;9.57;73.27
22333;BME280;11334;36.986;-121.936;2023-01-25T07:00:15;102364.88;;;9.57;73.00
22333;BME280;11334;36.986;-121.936;2023-01-25T07:02:41;102365.59;;;9.59;72.62
22333;BME280;11334;36.986;-121.936;2023-01-25T07:05:08;102371.72;;;9.59;72.57
22333;BME280;11334;36.986;-121.936;2023-01-25T07:07:34;102373.03;;;9.54;72.79
22333;BME280;11334;36.986;-121.936;2023-01-25T07:10:01;102365.28;;;9.51;72.73
22333;BME280;11334;36.986;-121.936;2023-01-25T07:12:30;102375.72;;;9.42;72.90
22333;BME280;11334;36.986;-121.936;2023-01-25T07:14:56;102371.38;;;9.28;74.27
22333;BME280;11334;36.986;-121.936;2023-01-25T07:17:22;102375.50;;;9.32;74.16
22333;BME280;11334;36.986;-121.936;2023-01-25T07:19:48;102344.09;;;9.28;73.44
22333;BME280;11334;36.986;-121.936;2023-01-25T07:22:15;102363.88;;;9.35;73.40
22333;BME280;11334;36.986;-121.936;2023-01-25T07:24:42;102364.19;;;9.30;73.48
22333;BME280;11334;36.986;-121.936;2023-01-25T07:27:15;102375.22;;;9.24;74.45
22333;BME280;11334;36.986;-121.936;2023-01-25T07:29:42;102372.13;;;9.30;74.02
22333;BME280;11334;36.986;-121.936;2023-01-25T07:32:08;102375.00;;;9.27;73.43
22333;BME280;11334;36.986;-121.936;2023-01-25T07:34:36;102364.00;;;9.21;74.04
22333;BME280;11334;36.986;-121.936;2023-01-25T07:37:03;102351.84;;;9.18;73.94
22333;BME280;11334;36.986;-121.936;2023-01-25T07:39:29;102367.38;;;9.23;74.18
22333;BME280;11334;36.986;-121.936;2023-01-25T07:41:55;102358.09;;;9.17;74.24
22333;BME280;11334;36.986;-121.936;2023-01-25T07:44:22;102357.97;;;9.19;73.90
22333;BME280;11334;36.986;-121.936;2023-01-25T07:46:48;102360.09;;;9.02;74.99
22333;BME280;11334;36.986;-121.936;2023-01-25T07:49:14;102355.16;;;9.10;74.43
22333;BME280;11334;36.986;-121.936;2023-01-25T07:51:41;102356.81;;;9.11;74.11
22333;BME280;11334;36.986;-121.936;2023-01-25T07:54:09;102351.13;;;9.04;74.13
22333;BME280;11334;36.986;-121.936;2023-01-25T07:56:37;102341.81;;;8.99;74.15
22333;BME280;11334;36.986;-121.936;2023-01-25T07:59:05;102351.25;;;9.03;73.63
22333;BME280;11334;36.986;-121.936;2023-01-25T08:01:34;102355.47;;;9.05;73.90
22333;BME280;11334;36.986;-121.936;2023-01-25T08:04:02;102366.13;;;9.04;73.76
22333;BME280;11334;36.986;-121.936;2023-01-25T08:06:34;102369.97;;;9.00;74.34
22333;BME280;11334;36.986;-121.936;2023-01-25T08:09:06;102369.75;;;9.03;73.93
22333;BME280;11334;36.986;-121.936;2023-01-25T08:11:33;102349.88;;;8.97;73.75
22333;BME280;11334;36.986;-121.936;2023-01-25T08:14:00;102357.69;;;8.99;73.54
22333;BME280;11334;36.986;-121.936;2023-01-25T08:16:29;102353.06;;;8.90;74.54
22333;BME280;11334;36.986;-121.936;2023-01-25T08:18:57;102350.81;;;8.84;75.11
22333;BME280;11334;36.986;-121.936;2023-01-25T08:21:25;102351.34;;;8.89;75.22
22333;BME280;11334;36.986;-121.936;2023-01-25T08:23:56;102346.59;;;8.82;74.82
22333;BME280;11334;36.986;-121.936;2023-01-25T08:26:23;102348.41;;;8.81;75.02
22333;BME280;11334;36.986;-121.936;2023-01-25T08:28:49;102336.03;;;8.82;74.70
22333;BME280;11334;36.986;-121.936;2023-01-25T08:31:21;102341.66;;;8.77;74.61
22333;BME280;11334;36.986;-121.936;2023-01-25T08:33:48;102340.06;;;8.75;74.62
22333;BME280;11334;36.986;-121.936;2023-01-25T08:36:16;102342.91;;;8.59;76.54
22333;BME280;11334;36.986;-121.936;2023-01-25T08:38:44;102342.38;;;8.67;76.54
22333;BME280;11334;36.986;-121.936;2023-01-25T08:41:16;102351.47;;;8.75;76.00
22333;BME280;11334;36.986;-121.936;2023-01-25T08:43:44;102342.50;;;8.65;75.76
22333;BME280;11334;36.986;-121.936;2023-01-25T08:46:11;102345.88;;;8.55;76.78
22333;BME280;11334;36.986;-121.936;2023-01-25T08:48:38;102326.22;;;8.47;76.67
22333;BME280;11334;36.986;-121.936;2023-01-25T08:51:07;102350.72;;;8.61;76.25
22333;BME280;11334;36.986;-121.936;2023-01-25T08:53:33;102350.81;;;8.59;75.61
22333;BME280;11334;36.986;-121.936;2023-01-25T08:56:07;102349.06;;;8.48;76.38
22333;BME280;11334;36.986;-121.936;2023-01-25T08:58:39;102351.78;;;8.46;76.67
22333;BME280;11334;36.986;-121.936;2023-01-25T09:01:07;102356.63;;;8.40;76.55
22333;BME280;11334;36.986;-121.936;2023-01-25T09:03:35;102359.78;;;8.45;76.66
22333;BME280;11334;36.986;-121.936;2023-01-25T09:06:02;102357.59;;;8.39;76.62
22333;BME280;11334;36.986;-121.936;2023-01-25T09:08:28;102343.94;;;8.32;76.53
22333;BME280;11334;36.986;-121.936;2023-01-25T09:11:06;102361.38;;;8.35;77.09
22333;BME280;11334;36.986;-121.936;2023-01-25T09:13:32;102360.66;;;8.33;77.26
22333;BME280;11334;36.986;-121.936;2023-01-25T09:18:27;102360.81;;;8.30;77.73
22333;BME280;11334;36.986;-121.936;2023-01-25T09:20:54;102364.31;;;8.18;77.85
22333;BME280;11334;36.986;-121.936;2023-01-25T09:23:20;102350.09;;;8.07;78.49
22333;BME280;11334;36.986;-121.936;2023-01-25T09:25:58;102361.56;;;8.19;78.19
22333;BME280;11334;36.986;-121.936;2023-01-25T09:28:26;102365.44;;;8.14;77.83
22333;BME280;11334;36.986;-121.936;2023-01-25T09:31:03;102359.34;;;8.14;78.05
22333;BME280;11334;36.986;-121.936;2023-01-25T09:33:33;102359.34;;;8.14;77.45
22333;BME280;11334;36.986;-121.936;2023-01-25T09:36:01;102356.41;;;8.18;78.15
22333;BME280;11334;36.986;-121.936;2023-01-25T09:38:27;102357.44;;;8.16;77.87
22333;BME280;11334;36.986;-121.936;2023-01-25T09:46:38;102355.53;;;8.18;77.22
22333;BME280;11334;36.986;-121.936;2023-01-25T09:54:45;102354.38;;;7.95;77.92
22333;BME280;11334;36.986;-121.936;2023-01-25T09:59:51;102359.97;;;7.91;79.00
22333;BME280;11334;36.986;-121.936;2023-01-25T10:02:35;102358.38;;;7.88;78.28
22333;BME280;11334;36.986;-121.936;2023-01-25T10:05:30;102359.88;;;7.92;77.60
22333;BME280;11334;36.986;-121.936;2023-01-25T10:08:15;102360.06;;;7.89;77.93
22333;BME280;11334;36.986;-121.936;2023-01-25T10:10:48;102360.28;;;7.87;77.60
22333;BME280;11334;36.986;-121.936;2023-01-25T10:13:21;102356.59;;;7.89;77.69
22333;BME280;11334;36.986;-121.936;2023-01-25T10:16:09;102355.22;;;7.84;77.74
22333;BME280;11334;36.986;-121.936;2023-01-25T10:18:39;102343.16;;;7.80;77.88
22333;BME280;11334;36.986;-121.936;2023-01-25T10:21:23;102335.69;;;7.86;77.30
22333;BME280;11334;36.986;-121.936;2023-01-25T10:26:28;102332.06;;;7.75;78.01
22333;BME280;11334;36.986;-121.936;2023-01-25T10:29:04;102331.63;;;7.81;77.64
22333;BME280;11334;36.986;-121.936;2023-01-25T10:31:55;102330.91;;;7.79;78.15
22333;BME280;11334;36.986;-121.936;2023-01-25T10:37:02;102304.59;;;7.65;78.13
22333;BME280;11334;36.986;-121.936;2023-01-25T10:39:31;102321.28;;;7.78;77.81
22333;BME280;11334;36.986;-121.936;2023-01-25T10:42:08;102324.91;;;7.77;77.71
22333;BME280;11334;36.986;-121.936;2023-01-25T10:44:37;102318.13;;;7.73;77.57
22333;BME280;11334;36.986;-121.936;2023-01-25T10:47:16;102312.63;;;7.76;78.08
22333;BME280;11334;36.986;-121.936;2023-01-25T10:49:58;102321.78;;;7.70;78.11
22333;BME280;11334;36.986;-121.936;2023-01-25T10:52:30;102321.38;;;7.64;78.12
22333;BME280;11334;36.986;-121.936;2023-01-25T10:55:19;102303.50;;;7.55;78.89
22333;BME280;11334;36.986;-121.936;2023-01-25T10:57:55;102326.31;;;7.56;78.50
22333;BME280;11334;36.986;-121.936;2023-01-25T11:00:37;102316.97;;;7.51;78.92
22333;BME280;11334;36.986;-121.936;2023-01-25T11:03:04;102302.59;;;7.42;79.38
22333;BME280;11334;36.986;-121.936;2023-01-25T11:05:37;102311.63;;;7.52;78.68
22333;BME280;11334;36.986;-121.936;2023-01-25T11:08:23;102308.47;;;7.33;80.34
22333;BME280;11334;36.986;-121.936;2023-01-25T11:10:51;102282.78;;;7.23;80.10
22333;BME280;11334;36.986;-121.936;2023-01-25T11:13:18;102324.81;;;7.38;79.91
22333;BME280;11334;36.986;-121.936;2023-01-25T11:18:26;102317.81;;;7.25;81.17
22333;BME280;11334;36.986;-121.936;2023-01-25T11:21:12;102319.31;;;7.29;81.50
22333;BME280;11334;36.986;-121.936;2023-01-25T11:23:58;102317.25;;;7.34;81.22
22333;BME280;11334;36.986;-121.936;2023-01-25T11:26:25;102310.75;;;7.25;81.64
22333;BME280;11334;36.986;-121.936;2023-01-25T11:29:06;102311.97;;;7.34;81.91
22333;BME280;11334;36.986;-121.936;2023-01-25T11:31:33;102299.50;;;7.36;80.62
22333;BME280;11334;36.986;-121.936;2023-01-25T11:33:59;102312.69;;;7.36;80.37
22333;BME280;11334;36.986;-121.936;2023-01-25T11:39:32;102307.91;;;7.28;79.94
22333;BME280;11334;36.986;-121.936;2023-01-25T11:45:16;102319.91;;;7.20;81.47
22333;BME280;11334;36.986;-121.936;2023-01-25T11:48:08;102314.97;;;7.28;80.13
22333;BME280;11334;36.986;-121.936;2023-01-25T12:01:32;102294.22;;;7.10;80.56
22333;BME280;11334;36.986;-121.936;2023-01-25T12:09:37;102325.66;;;7.13;81.28
22333;BME280;11334;36.986;-121.936;2023-01-25T12:12:30;102321.50;;;7.09;81.18
22333;BME280;11334;36.986;-121.936;2023-01-25T12:15:26;102309.84;;;6.99;81.35
22333;BME280;11334;36.986;-121.936;2023-01-25T12:18:07;102321.81;;;7.04;81.57
22333;BME280;11334;36.986;-121.936;2023-01-25T12:24:03;102302.91;;;6.98;81.69
22333;BME280;11334;36.986;-121.936;2023-01-25T12:26:49;102317.38;;;7.05;81.74
22333;BME280;11334;36.986;-121.936;2023-01-25T12:29:28;102314.94;;;7.02;81.49
22333;BME280;11334;36.986;-121.936;2023-01-25T12:31:59;102313.06;;;6.90;82.54
22333;BME280;11334;36.986;-121.936;2023-01-25T12:34:34;102308.84;;;6.88;81.77
22333;BME280;11334;36.986;-121.936;2023-01-25T12:37:23;102329.16;;;6.99;81.65
22333;BME280;11334;36.986;-121.936;2023-01-25T12:39:59;102326.81;;;6.95;81.62
22333;BME280;11334;36.986;-121.936;2023-01-25T12:42:33;102309.69;;;6.88;81.75
22333;BME280;11334;36.986;-121.936;2023-01-25T12:45:26;102309.69;;;6.88;82.36
22333;BME280;11334;36.986;-121.936;2023-01-25T12:48:03;102296.50;;;6.74;82.69
22333;BME280;11334;36.986;-121.936;2023-01-25T12:50:40;102296.06;;;6.68;82.56
22333;BME280;11334;36.986;-121.936;2023-01-25T12:53:20;102306.56;;;6.82;82.16
22333;BME280;11334;36.986;-121.936;2023-01-25T12:55:48;102308.28;;;6.83;82.54
22333;BME280;11334;36.986;-121.936;2023-01-25T13:01:02;102310.25;;;6.79;83.50
22333;BME280;11334;36.986;-121.936;2023-01-25T13:04:08;102319.94;;;6.79;83.07
22333;BME280;11334;36.986;-121.936;2023-01-25T13:06:48;102302.16;;;6.68;82.26
22333;BME280;11334;36.986;-121.936;2023-01-25T13:09:33;102322.97;;;6.73;83.20
22333;BME280;11334;36.986;-121.936;2023-01-25T13:12:04;102320.59;;;6.68;83.22
22333;BME280;11334;36.986;-121.936;2023-01-25T13:14:36;102319.75;;;6.68;82.73
22333;BME280;11334;36.986;-121.936;2023-01-25T13:17:29;102319.28;;;6.75;82.81
22333;BME280;11334;36.986;-121.936;2023-01-25T13:19:58;102335.72;;;6.79;82.46
22333;BME280;11334;36.986;-121.936;2023-01-25T13:25:28;102334.97;;;6.77;83.23
22333;BME280;11334;36.986;-121.936;2023-01-25T13:42:26;102342.63;;;6.67;82.56
22333;BME280;11334;36.986;-121.936;2023-01-25T13:45:17;102349.84;;;6.64;83.07
22333;BME280;11334;36.986;-121.936;2023-01-25T13:48:10;102331.41;;;6.50;83.44
22333;BME280;11334;36.986;-121.936;2023-01-25T13:50:47;102343.53;;;6.66;84.00
22333;BME280;11334;36.986;-121.936;2023-01-25T13:55:43;102345.97;;;6.69;83.84
22333;BME280;11334;36.986;-121.936;2023-01-25T13:58:26;102348.44;;;6.72;83.82
22333;BME280;11334;36.986;-121.936;2023-01-25T14:03:33;102349.75;;;6.65;83.25
22333;BME280;11334;36.986;-121.936;2023-01-25T14:06:00;102352.38;;;6.65;83.53
22333;BME280;11334;36.986;-121.936;2023-01-25T14:08:33;102349.00;;;6.63;83.53
22333;BME280;11334;36.986;-121.936;2023-01-25T14:11:00;102354.66;;;6.58;84.09
22333;BME280;11334;36.986;-121.936;2023-01-25T14:13:26;102362.34;;;6.61;82.98
22333;BME280;11334;36.986;-121.936;2023-01-25T14:16:00;102370.59;;;6.55;84.11
22333;BME280;11334;36.986;-121.936;2023-01-25T14:18:33;102362.44;;;6.59;83.77